sensor_id;sensor_type;location;lat;lon;timestamp;temperature;humidity
22450;DHT22;11392;57.390;-2.468;2022-12-18T00:01:16;-1.30;99.90
22450;DHT22;11392;57.390;-2.468;2022-12-18T00:03:43;-1.30;99.90
22450;DHT22;11392;57.390;-2.468;2022-12-18T00:06:11;-1.30;99.90
22450;DHT22;11392;57.390;-2.468;2022-12-18T00:08:38;-1.20;99.90
22450;DHT22;11392;57.390;-2.468;2022-12-18T00:11:12;-1.10;99.90
22450;DHT22;11392;57.390;-2.468;2022-12-18T00:13:39;-1.10;99.90
22450;DHT22;11392;57.390;-2.468;2022-12-18T00:16:10;-1.20;99.90
22450;DHT22;11392;57.390;-2.468;2022-12-18T00:18:37;-1.20;99.90
22450;DHT22;11392;57.390;-2.468;2022-12-18T00:21:07;-1.30;99.90
22450;DHT22;11392;57.390;-2.468;2022-12-18T00:23:35;-1.30;99.90
22450;DHT22;11392;57.390;-2.468;2022-12-18T00:26:09;-1.30;99.90
22450;DHT22;11392;57.390;-2.468;2022-12-18T00:28:36;-1.30;99.90
22450;DHT22;11392;57.390;-2.468;2022-12-18T00:31:08;-1.30;99.90
22450;DHT22;11392;57.390;-2.468;2022-12-18T00:33:36;-1.40;99.90
22450;DHT22;11392;57.390;-2.468;2022-12-18T00:36:05;-1.40;99.90
22450;DHT22;11392;57.390;-2.468;2022-12-18T00:38:33;-1.30;99.90
22450;DHT22;11392;57.390;-2.468;2022-12-18T00:41:00;-1.30;99.90
22450;DHT22;11392;57.390;-2.468;2022-12-18T00:43:28;-1.30;99.90
22450;DHT22;11392;57.390;-2.468;2022-12-18T00:45:54;-1.30;99.90
22450;DHT22;11392;57.390;-2.468;2022-12-18T00:48:22;-1.30;99.90
22450;DHT22;11392;57.390;-2.468;2022-12-18T00:50:49;-1.30;99.90
22450;DHT22;11392;57.390;-2.468;2022-12-18T00:53:17;-1.20;99.90
22450;DHT22;11392;57.390;-2.468;2022-12-18T00:55:45;-1.20;99.90
22450;DHT22;11392;57.390;-2.468;2022-12-18T00:58:14;-1.20;99.90
22450;DHT22;11392;57.390;-2.468;2022-12-18T01:00:42;-1.30;99.90
22450;DHT22;11392;57.390;-2.468;2022-12-18T01:03:10;-1.20;99.90
22450;DHT22;11392;57.390;-2.468;2022-12-18T01:05:41;-1.30;99.90
22450;DHT22;11392;57.390;-2.468;2022-12-18T01:08:08;-1.20;99.90
22450;DHT22;11392;57.390;-2.468;2022-12-18T01:10:35;-1.20;99.90
22450;DHT22;11392;57.390;-2.468;2022-12-18T01:13:02;-1.40;99.90
22450;DHT22;11392;57.390;-2.468;2022-12-18T01:15:29;-1.40;99.90
22450;DHT22;11392;57.390;-2.468;2022-12-18T01:17:56;-1.40;99.90
22450;DHT22;11392;57.390;-2.468;2022-12-18T01:20:23;-1.40;99.90
22450;DHT22;11392;57.390;-2.468;2022-12-18T01:22:50;-1.60;99.90
22450;DHT22;11392;57.390;-2.468;2022-12-18T01:25:17;-1.60;99.90
22450;DHT22;11392;57.390;-2.468;2022-12-18T01:27:44;-1.50;99.90
22450;DHT22;11392;57.390;-2.468;2022-12-18T01:30:11;-1.50;99.90
22450;DHT22;11392;57.390;-2.468;2022-12-18T01:32:38;-1.70;99.90
22450;DHT22;11392;57.390;-2.468;2022-12-18T01:35:06;-1.80;99.90
22450;DHT22;11392;57.390;-2.468;2022-12-18T01:37:33;-1.90;99.90
22450;DHT22;11392;57.390;-2.468;2022-12-18T01:40:00;-2.00;99.90
22450;DHT22;11392;57.390;-2.468;2022-12-18T01:42:27;-1.90;99.90
22450;DHT22;11392;57.390;-2.468;2022-12-18T01:45:01;-1.90;99.90
22450;DHT22;11392;57.390;-2.468;2022-12-18T01:47:48;-1.90;99.90
22450;DHT22;11392;57.390;-2.468;2022-12-18T01:50:22;-1.90;99.90
22450;DHT22;11392;57.390;-2.468;2022-12-18T01:52:55;-2.00;99.90
22450;DHT22;11392;57.390;-2.468;2022-12-18T01:55:26;-1.90;99.90
22450;DHT22;11392;57.390;-2.468;2022-12-18T01:57:56;-1.90;99.90
22450;DHT22;11392;57.390;-2.468;2022-12-18T02:00:25;-1.80;99.90
22450;DHT22;11392;57.390;-2.468;2022-12-18T02:02:53;-1.80;99.90
22450;DHT22;11392;57.390;-2.468;2022-12-18T02:08:51;-1.70;99.90
22450;DHT22;11392;57.390;-2.468;2022-12-18T02:14:39;-1.70;99.90
22450;DHT22;11392;57.390;-2.468;2022-12-18T02:23:01;-1.70;99.90
22450;DHT22;11392;57.390;-2.468;2022-12-18T02:26:06;-1.80;99.90
22450;DHT22;11392;57.390;-2.468;2022-12-18T02:28:47;-1.70;99.90
22450;DHT22;11392;57.390;-2.468;2022-12-18T02:31:19;-1.80;99.90
22450;DHT22;11392;57.390;-2.468;2022-12-18T02:33:49;-1.80;99.90
22450;DHT22;11392;57.390;-2.468;2022-12-18T02:36:17;-1.90;99.90
22450;DHT22;11392;57.390;-2.468;2022-12-18T02:38:47;-1.90;99.90
22450;DHT22;11392;57.390;-2.468;2022-12-18T02:41:14;-1.90;99.90
22450;DHT22;11392;57.390;-2.468;2022-12-18T02:44:06;-1.90;99.90
22450;DHT22;11392;57.390;-2.468;2022-12-18T02:54:52;-1.90;99.90
22450;DHT22;11392;57.390;-2.468;2022-12-18T03:00:12;-1.90;99.90
22450;DHT22;11392;57.390;-2.468;2022-12-18T03:05:17;-1.90;99.90
22450;DHT22;11392;57.390;-2.468;2022-12-18T03:07:56;-2.00;99.90
22450;DHT22;11392;57.390;-2.468;2022-12-18T03:10:32;-2.00;99.90
22450;DHT22;11392;57.390;-2.468;2022-12-18T03:13:05;-2.00;99.90
22450;DHT22;11392;57.390;-2.468;2022-12-18T03:15:47;-2.00;99.90
22450;DHT22;11392;57.390;-2.468;2022-12-18T03:18:22;-2.00;99.90
22450;DHT22;11392;57.390;-2.468;2022-12-18T03:20:51;-2.00;99.90
22450;DHT22;11392;57.390;-2.468;2022-12-18T03:23:25;-2.00;99.90
22450;DHT22;11392;57.390;-2.468;2022-12-18T03:25:57;-2.00;99.90
22450;DHT22;11392;57.390;-2.468;2022-12-18T03:28:37;-2.00;99.90
22450;DHT22;11392;57.390;-2.468;2022-12-18T03:31:06;-2.10;99.90
22450;DHT22;11392;57.390;-2.468;2022-12-18T03:33:47;-2.10;99.90
22450;DHT22;11392;57.390;-2.468;2022-12-18T03:36:17;-2.30;99.90
22450;DHT22;11392;57.390;-2.468;2022-12-18T03:38:44;-2.30;99.90
22450;DHT22;11392;57.390;-2.468;2022-12-18T03:41:24;-2.20;99.90
22450;DHT22;11392;57.390;-2.468;2022-12-18T03:49:19;-2.10;99.90
22450;DHT22;11392;57.390;-2.468;2022-12-18T03:51:54;-2.10;99.90
22450;DHT22;11392;57.390;-2.468;2022-12-18T03:54:24;-2.20;99.90
22450;DHT22;11392;57.390;-2.468;2022-12-18T03:56:59;-2.50;99.90
22450;DHT22;11392;57.390;-2.468;2022-12-18T03:59:29;-2.60;99.90
22450;DHT22;11392;57.390;-2.468;2022-12-18T04:01:58;-2.50;99.90
22450;DHT22;11392;57.390;-2.468;2022-12-18T04:04:28;-2.40;99.90
22450;DHT22;11392;57.390;-2.468;2022-12-18T04:06:56;-2.50;99.90
22450;DHT22;11392;57.390;-2.468;2022-12-18T04:09:24;-2.60;99.90
22450;DHT22;11392;57.390;-2.468;2022-12-18T04:11:52;-2.50;99.90
22450;DHT22;11392;57.390;-2.468;2022-12-18T04:14:19;-2.40;99.90
22450;DHT22;11392;57.390;-2.468;2022-12-18T04:16:46;-2.30;99.90
22450;DHT22;11392;57.390;-2.468;2022-12-18T04:19:13;-2.30;99.90
22450;DHT22;11392;57.390;-2.468;2022-12-18T04:21:40;-2.20;99.90
22450;DHT22;11392;57.390;-2.468;2022-12-18T04:24:07;-2.10;99.90
22450;DHT22;11392;57.390;-2.468;2022-12-18T04:26:35;-2.10;99.90
22450;DHT22;11392;57.390;-2.468;2022-12-18T04:29:02;-2.20;99.90
22450;DHT22;11392;57.390;-2.468;2022-12-18T04:31:29;-2.30;99.90
22450;DHT22;11392;57.390;-2.468;2022-12-18T04:33:56;-2.30;99.90
22450;DHT22;11392;57.390;-2.468;2022-12-18T04:36:26;-2.30;99.90
22450;DHT22;11392;57.390;-2.468;2022-12-18T04:38:53;-2.20;99.90
22450;DHT22;11392;57.390;-2.468;2022-12-18T04:41:20;-2.20;99.90
22450;DHT22;11392;57.390;-2.468;2022-12-18T04:43:47;-2.30;99.90
22450;DHT22;11392;57.390;-2.468;2022-12-18T04:46:14;-2.50;99.90
22450;DHT22;11392;57.390;-2.468;2022-12-18T04:48:41;-2.50;99.90
22450;DHT22;11392;57.390;-2.468;2022-12-18T04:51:08;-2.70;99.90
22450;DHT22;11392;57.390;-2.468;2022-12-18T04:53:35;-2.90;99.90
22450;DHT22;11392;57.390;-2.468;2022-12-18T04:56:11;-2.80;99.90
22450;DHT22;11392;57.390;-2.468;2022-12-18T04:58:39;-2.80;99.90
22450;DHT22;11392;57.390;-2.468;2022-12-18T05:01:07;-2.50;99.90
22450;DHT22;11392;57.390;-2.468;2022-12-18T05:03:35;-2.10;99.90
22450;DHT22;11392;57.390;-2.468;2022-12-18T05:06:04;-1.90;99.90
22450;DHT22;11392;57.390;-2.468;2022-12-18T05:08:32;-1.80;99.90
22450;DHT22;11392;57.390;-2.468;2022-12-18T05:11:00;-1.80;99.90
22450;DHT22;11392;57.390;-2.468;2022-12-18T05:13:28;-1.80;99.90
22450;DHT22;11392;57.390;-2.468;2022-12-18T05:15:55;-1.80;99.90
22450;DHT22;11392;57.390;-2.468;2022-12-18T05:18:23;-1.70;99.90
22450;DHT22;11392;57.390;-2.468;2022-12-18T05:20:51;-1.60;99.90
22450;DHT22;11392;57.390;-2.468;2022-12-18T05:23:20;-1.50;99.90
22450;DHT22;11392;57.390;-2.468;2022-12-18T05:25:52;-1.40;99.90
22450;DHT22;11392;57.390;-2.468;2022-12-18T05:28:20;-1.70;99.90
22450;DHT22;11392;57.390;-2.468;2022-12-18T05:30:51;-1.90;99.90
22450;DHT22;11392;57.390;-2.468;2022-12-18T05:33:20;-1.90;99.90
22450;DHT22;11392;57.390;-2.468;2022-12-18T05:35:55;-2.00;99.90
22450;DHT22;11392;57.390;-2.468;2022-12-18T05:38:23;-2.20;99.90
22450;DHT22;11392;57.390;-2.468;2022-12-18T05:40:52;-2.50;99.90
22450;DHT22;11392;57.390;-2.468;2022-12-18T05:43:19;-2.60;99.90
22450;DHT22;11392;57.390;-2.468;2022-12-18T05:45:48;-2.70;99.90
22450;DHT22;11392;57.390;-2.468;2022-12-18T05:48:16;-2.80;99.90
22450;DHT22;11392;57.390;-2.468;2022-12-18T05:50:46;-2.90;99.90
22450;DHT22;11392;57.390;-2.468;2022-12-18T05:53:15;-3.00;99.90
22450;DHT22;11392;57.390;-2.468;2022-12-18T05:55:43;-3.10;99.90
22450;DHT22;11392;57.390;-2.468;2022-12-18T05:58:13;-3.00;99.90
22450;DHT22;11392;57.390;-2.468;2022-12-18T06:00:43;-3.20;99.90
22450;DHT22;11392;57.390;-2.468;2022-12-18T06:03:11;-3.30;99.90
22450;DHT22;11392;57.390;-2.468;2022-12-18T06:05:44;-3.30;99.90
22450;DHT22;11392;57.390;-2.468;2022-12-18T06:08:12;-3.30;99.90
22450;DHT22;11392;57.390;-2.468;2022-12-18T06:10:40;-3.10;99.90
22450;DHT22;11392;57.390;-2.468;2022-12-18T06:13:08;-3.10;99.90
22450;DHT22;11392;57.390;-2.468;2022-12-18T06:15:38;-3.00;99.90
22450;DHT22;11392;57.390;-2.468;2022-12-18T06:18:05;-3.00;99.90
22450;DHT22;11392;57.390;-2.468;2022-12-18T06:20:32;-3.00;99.90
22450;DHT22;11392;57.390;-2.468;2022-12-18T06:23:00;-3.00;99.90
22450;DHT22;11392;57.390;-2.468;2022-12-18T06:25:27;-3.00;99.90
22450;DHT22;11392;57.390;-2.468;2022-12-18T06:27:54;-3.00;99.90
22450;DHT22;11392;57.390;-2.468;2022-12-18T06:30:21;-3.00;99.90
22450;DHT22;11392;57.390;-2.468;2022-12-18T06:32:49;-3.00;99.90
22450;DHT22;11392;57.390;-2.468;2022-12-18T06:35:22;-2.80;99.90
22450;DHT22;11392;57.390;-2.468;2022-12-18T06:37:50;-2.80;99.90
22450;DHT22;11392;57.390;-2.468;2022-12-18T06:40:17;-2.80;99.90
22450;DHT22;11392;57.390;-2.468;2022-12-18T06:42:44;-2.80;99.90
22450;DHT22;11392;57.390;-2.468;2022-12-18T06:45:11;-2.90;99.90
22450;DHT22;11392;57.390;-2.468;2022-12-18T06:47:41;-2.90;99.90
22450;DHT22;11392;57.390;-2.468;2022-12-18T06:50:08;-3.20;99.90
22450;DHT22;11392;57.390;-2.468;2022-12-18T06:52:36;-3.40;99.90
22450;DHT22;11392;57.390;-2.468;2022-12-18T06:55:04;-3.60;99.90
22450;DHT22;11392;57.390;-2.468;2022-12-18T06:57:31;-3.60;99.90
22450;DHT22;11392;57.390;-2.468;2022-12-18T06:59:58;-3.60;99.90
22450;DHT22;11392;57.390;-2.468;2022-12-18T07:02:25;-3.70;99.90
22450;DHT22;11392;57.390;-2.468;2022-12-18T07:04:52;-3.70;99.90
22450;DHT22;11392;57.390;-2.468;2022-12-18T07:07:19;-3.70;99.90
22450;DHT22;11392;57.390;-2.468;2022-12-18T07:09:46;-3.60;99.90
22450;DHT22;11392;57.390;-2.468;2022-12-18T07:12:15;-3.60;99.90
22450;DHT22;11392;57.390;-2.468;2022-12-18T07:14:42;-3.60;99.90
22450;DHT22;11392;57.390;-2.468;2022-12-18T07:17:09;-3.50;99.90
22450;DHT22;11392;57.390;-2.468;2022-12-18T07:19:36;-3.50;99.90
22450;DHT22;11392;57.390;-2.468;2022-12-18T07:22:03;-3.40;99.90
22450;DHT22;11392;57.390;-2.468;2022-12-18T07:24:33;-3.30;99.90
22450;DHT22;11392;57.390;-2.468;2022-12-18T07:27:01;-3.30;99.90
22450;DHT22;11392;57.390;-2.468;2022-12-18T07:29:28;-3.10;99.90
22450;DHT22;11392;57.390;-2.468;2022-12-18T07:31:55;-3.00;99.90
22450;DHT22;11392;57.390;-2.468;2022-12-18T07:34:22;-3.00;99.90
22450;DHT22;11392;57.390;-2.468;2022-12-18T07:36:49;-3.00;99.90
22450;DHT22;11392;57.390;-2.468;2022-12-18T07:39:16;-2.90;99.90
22450;DHT22;11392;57.390;-2.468;2022-12-18T07:41:45;-2.70;99.90
22450;DHT22;11392;57.390;-2.468;2022-12-18T07:44:35;-2.60;99.90
22450;DHT22;11392;57.390;-2.468;2022-12-18T07:47:04;-2.60;99.90
22450;DHT22;11392;57.390;-2.468;2022-12-18T07:49:40;-2.60;99.90
22450;DHT22;11392;57.390;-2.468;2022-12-18T07:52:07;-2.40;99.90
22450;DHT22;11392;57.390;-2.468;2022-12-18T07:54:36;-2.40;99.90
22450;DHT22;11392;57.390;-2.468;2022-12-18T07:57:03;-2.30;99.90
22450;DHT22;11392;57.390;-2.468;2022-12-18T07:59:47;-2.30;99.90
22450;DHT22;11392;57.390;-2.468;2022-12-18T08:02:16;-2.30;99.90
22450;DHT22;11392;57.390;-2.468;2022-12-18T08:04:43;-2.30;99.90
22450;DHT22;11392;57.390;-2.468;2022-12-18T08:07:11;-2.20;99.90
22450;DHT22;11392;57.390;-2.468;2022-12-18T08:09:38;-2.20;99.90
22450;DHT22;11392;57.390;-2.468;2022-12-18T08:12:05;-2.20;99.90
22450;DHT22;11392;57.390;-2.468;2022-12-18T08:14:32;-2.00;99.90
22450;DHT22;11392;57.390;-2.468;2022-12-18T08:16:59;-1.90;99.90
22450;DHT22;11392;57.390;-2.468;2022-12-18T08:19:26;-1.90;99.90
22450;DHT22;11392;57.390;-2.468;2022-12-18T08:21:53;-2.00;99.90
22450;DHT22;11392;57.390;-2.468;2022-12-18T08:24:20;-2.30;99.90
22450;DHT22;11392;57.390;-2.468;2022-12-18T08:26:48;-2.50;99.90
22450;DHT22;11392;57.390;-2.468;2022-12-18T08:29:35;-2.40;99.90
22450;DHT22;11392;57.390;-2.468;2022-12-18T08:32:02;-2.50;99.90
22450;DHT22;11392;57.390;-2.468;2022-12-18T08:34:29;-2.60;99.90
22450;DHT22;11392;57.390;-2.468;2022-12-18T08:36:56;-2.50;99.90
22450;DHT22;11392;57.390;-2.468;2022-12-18T08:39:23;-2.40;99.90
22450;DHT22;11392;57.390;-2.468;2022-12-18T08:41:50;-2.40;99.90
22450;DHT22;11392;57.390;-2.468;2022-12-18T08:44:36;-2.40;99.90
22450;DHT22;11392;57.390;-2.468;2022-12-18T08:47:07;-2.40;99.90
22450;DHT22;11392;57.390;-2.468;2022-12-18T08:49:35;-2.40;99.90
22450;DHT22;11392;57.390;-2.468;2022-12-18T08:52:05;-2.30;99.90
22450;DHT22;11392;57.390;-2.468;2022-12-18T08:54:32;-2.30;99.90
22450;DHT22;11392;57.390;-2.468;2022-12-18T08:56:59;-2.10;99.90
22450;DHT22;11392;57.390;-2.468;2022-12-18T08:59:27;-2.00;99.90
22450;DHT22;11392;57.390;-2.468;2022-12-18T09:01:54;-1.90;99.90
22450;DHT22;11392;57.390;-2.468;2022-12-18T09:04:22;-1.90;99.90
22450;DHT22;11392;57.390;-2.468;2022-12-18T09:06:49;-1.70;99.90
22450;DHT22;11392;57.390;-2.468;2022-12-18T09:09:19;-1.60;99.90
22450;DHT22;11392;57.390;-2.468;2022-12-18T09:11:47;-1.60;99.90
22450;DHT22;11392;57.390;-2.468;2022-12-18T09:14:14;-1.50;99.90
22450;DHT22;11392;57.390;-2.468;2022-12-18T09:16:41;-1.40;99.90
22450;DHT22;11392;57.390;-2.468;2022-12-18T09:19:09;-1.30;99.90
22450;DHT22;11392;57.390;-2.468;2022-12-18T09:21:36;-1.30;99.90
22450;DHT22;11392;57.390;-2.468;2022-12-18T09:24:15;-1.20;99.90
22450;DHT22;11392;57.390;-2.468;2022-12-18T09:26:43;-1.20;99.90
22450;DHT22;11392;57.390;-2.468;2022-12-18T09:29:14;-1.10;99.90
22450;DHT22;11392;57.390;-2.468;2022-12-18T09:31:42;-1.00;99.90
22450;DHT22;11392;57.390;-2.468;2022-12-18T09:34:09;-1.00;99.90
22450;DHT22;11392;57.390;-2.468;2022-12-18T09:36:37;-0.90;99.90
22450;DHT22;11392;57.390;-2.468;2022-12-18T09:39:04;-0.90;99.90
22450;DHT22;11392;57.390;-2.468;2022-12-18T09:41:51;-0.80;99.90
22450;DHT22;11392;57.390;-2.468;2022-12-18T09:47:08;-0.70;99.90
22450;DHT22;11392;57.390;-2.468;2022-12-18T09:49:43;-0.60;99.90
22450;DHT22;11392;57.390;-2.468;2022-12-18T09:52:32;-0.40;99.90
22450;DHT22;11392;57.390;-2.468;2022-12-18T09:57:42;-0.20;99.90
22450;DHT22;11392;57.390;-2.468;2022-12-18T10:00:18;-0.10;99.90
22450;DHT22;11392;57.390;-2.468;2022-12-18T10:02:46;0.00;99.90
22450;DHT22;11392;57.390;-2.468;2022-12-18T10:05:16;0.00;99.90
22450;DHT22;11392;57.390;-2.468;2022-12-18T10:08:02;0.00;99.90
22450;DHT22;11392;57.390;-2.468;2022-12-18T10:10:44;0.10;99.90
22450;DHT22;11392;57.390;-2.468;2022-12-18T10:13:30;0.00;99.90
22450;DHT22;11392;57.390;-2.468;2022-12-18T10:18:59;-0.10;99.90
22450;DHT22;11392;57.390;-2.468;2022-12-18T10:21:42;-0.10;99.90
22450;DHT22;11392;57.390;-2.468;2022-12-18T10:24:33;-0.10;99.90
22450;DHT22;11392;57.390;-2.468;2022-12-18T10:27:15;0.00;99.90
22450;DHT22;11392;57.390;-2.468;2022-12-18T10:29:44;0.10;99.90
22450;DHT22;11392;57.390;-2.468;2022-12-18T10:32:32;0.20;99.90
22450;DHT22;11392;57.390;-2.468;2022-12-18T10:34:59;0.30;99.90
22450;DHT22;11392;57.390;-2.468;2022-12-18T10:37:29;0.30;99.90
22450;DHT22;11392;57.390;-2.468;2022-12-18T10:40:14;0.40;99.90
22450;DHT22;11392;57.390;-2.468;2022-12-18T10:43:11;0.40;99.90
22450;DHT22;11392;57.390;-2.468;2022-12-18T10:45:39;0.50;99.90
22450;DHT22;11392;57.390;-2.468;2022-12-18T10:48:21;0.50;99.90
22450;DHT22;11392;57.390;-2.468;2022-12-18T10:50:51;0.30;99.90
22450;DHT22;11392;57.390;-2.468;2022-12-18T10:53:40;0.20;99.90
22450;DHT22;11392;57.390;-2.468;2022-12-18T10:56:08;0.40;99.90
22450;DHT22;11392;57.390;-2.468;2022-12-18T10:58:37;0.50;99.90
22450;DHT22;11392;57.390;-2.468;2022-12-18T11:01:11;0.50;99.90
22450;DHT22;11392;57.390;-2.468;2022-12-18T11:06:27;0.30;99.90
22450;DHT22;11392;57.390;-2.468;2022-12-18T11:09:20;0.50;99.90
22450;DHT22;11392;57.390;-2.468;2022-12-18T11:11:55;0.60;99.90
22450;DHT22;11392;57.390;-2.468;2022-12-18T11:14:31;0.70;99.90
22450;DHT22;11392;57.390;-2.468;2022-12-18T11:17:00;0.70;99.90
22450;DHT22;11392;57.390;-2.468;2022-12-18T11:20:50;0.70;99.90
22450;DHT22;11392;57.390;-2.468;2022-12-18T11:22:59;0.80;99.90
22450;DHT22;11392;57.390;-2.468;2022-12-18T11:25:28;0.80;99.90
22450;DHT22;11392;57.390;-2.468;2022-12-18T11:28:05;0.90;99.90
22450;DHT22;11392;57.390;-2.468;2022-12-18T11:30:35;0.90;99.90
22450;DHT22;11392;57.390;-2.468;2022-12-18T11:33:15;1.10;99.90
22450;DHT22;11392;57.390;-2.468;2022-12-18T11:35:52;1.10;99.90
22450;DHT22;11392;57.390;-2.468;2022-12-18T11:38:28;1.10;99.90
22450;DHT22;11392;57.390;-2.468;2022-12-18T11:41:04;1.20;99.90
22450;DHT22;11392;57.390;-2.468;2022-12-18T11:43:44;1.20;99.90
22450;DHT22;11392;57.390;-2.468;2022-12-18T11:46:16;1.30;99.90
22450;DHT22;11392;57.390;-2.468;2022-12-18T11:49:12;0.90;99.90
22450;DHT22;11392;57.390;-2.468;2022-12-18T11:51:48;0.80;99.90
22450;DHT22;11392;57.390;-2.468;2022-12-18T11:54:18;0.90;99.90
22450;DHT22;11392;57.390;-2.468;2022-12-18T12:02:41;1.10;99.90
22450;DHT22;11392;57.390;-2.468;2022-12-18T12:05:25;1.70;99.90
22450;DHT22;11392;57.390;-2.468;2022-12-18T12:16:17;2.90;99.90
22450;DHT22;11392;57.390;-2.468;2022-12-18T12:21:40;3.00;99.90
22450;DHT22;11392;57.390;-2.468;2022-12-18T12:24:34;3.10;99.90
22450;DHT22;11392;57.390;-2.468;2022-12-18T12:27:10;3.20;99.90
22450;DHT22;11392;57.390;-2.468;2022-12-18T12:29:57;3.40;99.90
22450;DHT22;11392;57.390;-2.468;2022-12-18T12:32:45;3.40;99.90
22450;DHT22;11392;57.390;-2.468;2022-12-18T12:35:47;3.60;99.90
22450;DHT22;11392;57.390;-2.468;2022-12-18T12:38:24;3.70;99.90
22450;DHT22;11392;57.390;-2.468;2022-12-18T12:41:01;3.80;99.90
22450;DHT22;11392;57.390;-2.468;2022-12-18T12:43:44;3.90;99.90
22450;DHT22;11392;57.390;-2.468;2022-12-18T12:46:19;4.00;99.90
22450;DHT22;11392;57.390;-2.468;2022-12-18T12:49:14;4.10;99.90
22450;DHT22;11392;57.390;-2.468;2022-12-18T12:51:45;4.30;99.90
22450;DHT22;11392;57.390;-2.468;2022-12-18T12:54:19;4.30;99.90
22450;DHT22;11392;57.390;-2.468;2022-12-18T12:56:51;4.30;99.90
22450;DHT22;11392;57.390;-2.468;2022-12-18T12:59:27;4.40;99.90
22450;DHT22;11392;57.390;-2.468;2022-12-18T13:05:25;4.20;99.90
22450;DHT22;11392;57.390;-2.468;2022-12-18T13:08:07;4.10;99.90
22450;DHT22;11392;57.390;-2.468;2022-12-18T13:10:35;4.10;99.90
22450;DHT22;11392;57.390;-2.468;2022-12-18T13:13:15;4.10;99.90
22450;DHT22;11392;57.390;-2.468;2022-12-18T13:16:06;4.10;99.90
22450;DHT22;11392;57.390;-2.468;2022-12-18T13:18:34;4.30;99.90
22450;DHT22;11392;57.390;-2.468;2022-12-18T13:21:26;4.20;99.90
22450;DHT22;11392;57.390;-2.468;2022-12-18T13:23:55;4.10;99.90
22450;DHT22;11392;57.390;-2.468;2022-12-18T13:28:57;4.20;99.90
22450;DHT22;11392;57.390;-2.468;2022-12-18T13:34:28;4.20;99.90
22450;DHT22;11392;57.390;-2.468;2022-12-18T13:40:00;4.20;99.90
22450;DHT22;11392;57.390;-2.468;2022-12-18T13:42:37;4.20;99.90
22450;DHT22;11392;57.390;-2.468;2022-12-18T13:45:42;4.20;99.90
22450;DHT22;11392;57.390;-2.468;2022-12-18T13:48:23;4.20;99.90
22450;DHT22;11392;57.390;-2.468;2022-12-18T13:51:04;4.30;99.90
22450;DHT22;11392;57.390;-2.468;2022-12-18T13:54:00;4.20;99.90
22450;DHT22;11392;57.390;-2.468;2022-12-18T13:56:31;4.20;99.90
22450;DHT22;11392;57.390;-2.468;2022-12-18T14:04:27;4.30;99.90
22450;DHT22;11392;57.390;-2.468;2022-12-18T14:09:34;4.10;99.90
22450;DHT22;11392;57.390;-2.468;2022-12-18T14:12:05;4.10;99.90
22450;DHT22;11392;57.390;-2.468;2022-12-18T14:14:52;4.10;99.90
22450;DHT22;11392;57.390;-2.468;2022-12-18T14:17:21;4.00;99.90
22450;DHT22;11392;57.390;-2.468;2022-12-18T14:19:51;4.00;99.90
22450;DHT22;11392;57.390;-2.468;2022-12-18T14:22:20;4.00;99.90
22450;DHT22;11392;57.390;-2.468;2022-12-18T14:25:10;3.90;99.90
22450;DHT22;11392;57.390;-2.468;2022-12-18T14:27:45;4.00;99.90
22450;DHT22;11392;57.390;-2.468;2022-12-18T14:30:36;3.90;99.90
22450;DHT22;11392;57.390;-2.468;2022-12-18T14:33:09;4.10;99.90
22450;DHT22;11392;57.390;-2.468;2022-12-18T14:36:00;4.00;99.90
22450;DHT22;11392;57.390;-2.468;2022-12-18T14:38:38;3.90;99.90
22450;DHT22;11392;57.390;-2.468;2022-12-18T14:41:16;3.90;99.90
22450;DHT22;11392;57.390;-2.468;2022-12-18T14:43:47;4.00;99.90
22450;DHT22;11392;57.390;-2.468;2022-12-18T14:46:35;4.00;99.90
22450;DHT22;11392;57.390;-2.468;2022-12-18T14:49:17;4.00;99.90
22450;DHT22;11392;57.390;-2.468;2022-12-18T14:51:56;3.80;99.90
22450;DHT22;11392;57.390;-2.468;2022-12-18T14:54:25;3.90;99.90
22450;DHT22;11392;57.390;-2.468;2022-12-18T14:57:22;3.90;99.90
22450;DHT22;11392;57.390;-2.468;2022-12-18T14:59:50;3.90;99.90
22450;DHT22;11392;57.390;-2.468;2022-12-18T15:02:23;3.80;99.90
22450;DHT22;11392;57.390;-2.468;2022-12-18T15:05:05;3.70;99.90
22450;DHT22;11392;57.390;-2.468;2022-12-18T15:07:53;3.80;99.90
22450;DHT22;11392;57.390;-2.468;2022-12-18T15:10:26;3.70;99.90
22450;DHT22;11392;57.390;-2.468;2022-12-18T15:20:45;3.70;99.90
22450;DHT22;11392;57.390;-2.468;2022-12-18T15:25:43;3.60;99.90
22450;DHT22;11392;57.390;-2.468;2022-12-18T15:28:28;3.70;99.90
22450;DHT22;11392;57.390;-2.468;2022-12-18T15:31:03;3.60;99.90
22450;DHT22;11392;57.390;-2.468;2022-12-18T15:33:33;3.60;99.90
22450;DHT22;11392;57.390;-2.468;2022-12-18T15:36:04;3.60;99.90
22450;DHT22;11392;57.390;-2.468;2022-12-18T15:38:32;3.70;99.90
22450;DHT22;11392;57.390;-2.468;2022-12-18T15:40:59;3.70;99.90
22450;DHT22;11392;57.390;-2.468;2022-12-18T15:43:30;3.80;99.90
22450;DHT22;11392;57.390;-2.468;2022-12-18T15:46:11;3.70;99.90
22450;DHT22;11392;57.390;-2.468;2022-12-18T15:48:44;3.70;99.90
22450;DHT22;11392;57.390;-2.468;2022-12-18T15:51:16;3.70;99.90
22450;DHT22;11392;57.390;-2.468;2022-12-18T15:53:44;3.70;99.90
22450;DHT22;11392;57.390;-2.468;2022-12-18T15:56:14;3.60;99.90
22450;DHT22;11392;57.390;-2.468;2022-12-18T15:59:01;3.60;99.90
22450;DHT22;11392;57.390;-2.468;2022-12-18T16:01:30;3.80;99.90
22450;DHT22;11392;57.390;-2.468;2022-12-18T16:03:58;3.80;99.90
22450;DHT22;11392;57.390;-2.468;2022-12-18T16:06:25;3.80;99.90
22450;DHT22;11392;57.390;-2.468;2022-12-18T16:08:52;3.90;99.90
22450;DHT22;11392;57.390;-2.468;2022-12-18T16:11:25;3.80;99.90
22450;DHT22;11392;57.390;-2.468;2022-12-18T16:14:08;3.90;99.90
22450;DHT22;11392;57.390;-2.468;2022-12-18T16:16:39;4.00;99.90
22450;DHT22;11392;57.390;-2.468;2022-12-18T16:19:06;4.00;99.90
22450;DHT22;11392;57.390;-2.468;2022-12-18T16:21:33;4.00;99.90
22450;DHT22;11392;57.390;-2.468;2022-12-18T16:24:00;3.90;99.90
22450;DHT22;11392;57.390;-2.468;2022-12-18T16:26:27;3.90;99.90
22450;DHT22;11392;57.390;-2.468;2022-12-18T16:28:54;4.00;99.90
22450;DHT22;11392;57.390;-2.468;2022-12-18T16:31:21;4.00;99.90
22450;DHT22;11392;57.390;-2.468;2022-12-18T16:33:48;4.10;99.90
22450;DHT22;11392;57.390;-2.468;2022-12-18T16:36:15;4.10;99.90
22450;DHT22;11392;57.390;-2.468;2022-12-18T16:38:42;4.20;99.90
22450;DHT22;11392;57.390;-2.468;2022-12-18T16:41:18;4.20;99.90
22450;DHT22;11392;57.390;-2.468;2022-12-18T16:43:58;4.20;99.90
22450;DHT22;11392;57.390;-2.468;2022-12-18T16:46:25;4.30;99.90
22450;DHT22;11392;57.390;-2.468;2022-12-18T16:48:52;4.40;99.90
22450;DHT22;11392;57.390;-2.468;2022-12-18T16:51:19;4.50;99.90
22450;DHT22;11392;57.390;-2.468;2022-12-18T16:53:46;4.40;99.90
22450;DHT22;11392;57.390;-2.468;2022-12-18T16:56:13;4.30;99.90
22450;DHT22;11392;57.390;-2.468;2022-12-18T16:58:40;4.30;99.90
22450;DHT22;11392;57.390;-2.468;2022-12-18T17:01:11;4.30;99.90
22450;DHT22;11392;57.390;-2.468;2022-12-18T17:03:39;4.40;99.90
22450;DHT22;11392;57.390;-2.468;2022-12-18T17:06:07;4.30;99.90
22450;DHT22;11392;57.390;-2.468;2022-12-18T17:08:34;4.40;99.90
22450;DHT22;11392;57.390;-2.468;2022-12-18T17:11:07;4.40;99.90
22450;DHT22;11392;57.390;-2.468;2022-12-18T17:13:35;4.30;99.90
22450;DHT22;11392;57.390;-2.468;2022-12-18T17:16:08;4.30;99.90
22450;DHT22;11392;57.390;-2.468;2022-12-18T17:18:36;4.20;99.90
22450;DHT22;11392;57.390;-2.468;2022-12-18T17:21:05;4.20;99.90
22450;DHT22;11392;57.390;-2.468;2022-12-18T17:23:35;4.20;99.90